Time;durP1;ratioP1;P1;durP2;ratioP2;P2;SDS_P1;SDS_P2;PMS_P1;PMS_P2;Temp;Humidity;BMP_temperature;BMP_pressure;BME280_temperature;BME280_humidity;BME280_pressure;Samples;Min_cycle;Max_cycle;Signal;HPM_P1;HPM_P2
2022/12/23 00:01:57;;;;;;;42.28;17.27;;;7.60;99.90;;;;;;6259031;22;20062;-78
2022/12/23 00:08:31;;;;;;;44.00;18.17;;;7.50;99.90;;;;;;6220515;22;20011;-78
2022/12/23 00:11:05;;;;;;;70.65;18.50;;;7.50;99.90;;;;;;6253442;22;20007;-78
2022/12/23 00:16:36;;;;;;;58.72;20.23;;;7.10;99.90;;;;;;6266291;22;20051;-78
2022/12/23 00:19:02;;;;;;;44.22;19.25;;;7.50;99.90;;;;;;6233744;22;20046;-78
2022/12/23 00:21:34;;;;;;;50.25;19.38;;;7.60;99.90;;;;;;6284200;22;20286;-78
2022/12/23 00:24:18;;;;;;;53.60;20.55;;;7.10;99.90;;;;;;6285664;22;20280;-80
2022/12/23 00:26:44;;;;;;;50.67;18.92;;;6.50;99.90;;;;;;6258105;22;20019;-78
2022/12/23 00:29:21;;;;;;;69.80;21.83;;;7.60;99.90;;;;;;6285070;22;20062;-78
2022/12/23 00:31:49;;;;;;;50.70;19.75;;;7.80;99.90;;;;;;6236193;22;20011;-78
2022/12/23 00:34:22;;;;;;;55.83;19.88;;;7.60;99.90;;;;;;6286090;22;20026;-78
2022/12/23 00:37:03;;;;;;;58.67;19.38;;;7.00;99.90;;;;;;6260987;22;20376;-76
2022/12/23 00:45:15;;;;;;;57.65;20.88;;;7.40;99.90;;;;;;6264804;22;20317;-80
2022/12/23 00:50:32;;;;;;;75.68;20.25;;;7.10;99.90;;;;;;6285962;22;20050;-80
2022/12/23 00:52:58;;;;;;;47.45;19.77;;;7.50;99.90;;;;;;6258832;22;20080;-79
2022/12/23 00:55:26;;;;;;;44.90;18.30;;;7.10;99.90;;;;;;6260509;22;20078;-80
2022/12/23 00:57:52;;;;;;;48.50;19.27;;;7.20;99.90;;;;;;6258771;22;20179;-80
2022/12/23 01:00:18;;;;;;;55.35;22.00;;;7.50;99.90;;;;;;6235406;22;20022;-79
2022/12/23 01:08:27;;;;;;;49.88;19.90;;;7.50;99.90;;;;;;6253368;22;20236;-79
2022/12/23 01:10:53;;;;;;;58.28;21.75;;;7.50;99.90;;;;;;6286570;22;20075;-78
2022/12/23 01:13:51;;;;;;;63.22;20.30;;;7.50;99.90;;;;;;6261945;22;20194;-78
2022/12/23 01:16:17;;;;;;;138.68;23.63;;;7.50;99.90;;;;;;6248556;22;20034;-80
2022/12/23 01:19:02;;;;;;;308.77;33.85;;;7.40;99.90;;;;;;6262026;22;20007;-80
2022/12/23 01:22:40;;;;;;;68.65;19.92;;;7.50;99.90;;;;;;6269701;22;20026;-80
2022/12/23 01:25:48;;;;;;;61.60;21.63;;;7.20;99.90;;;;;;6107234;23;20048;-79
2022/12/23 01:28:17;;;;;;;56.30;21.25;;;7.70;99.90;;;;;;6261811;22;20297;-79
2022/12/23 01:30:43;;;;;;;68.40;23.15;;;7.10;99.90;;;;;;6263175;22;20014;-79
2022/12/23 01:33:08;;;;;;;55.13;21.30;;;7.50;99.90;;;;;;6261680;22;20033;-79
2022/12/23 01:35:37;;;;;;;59.72;20.33;;;7.80;99.90;;;;;;6261581;22;20011;-80
2022/12/23 01:38:27;;;;;;;80.65;22.48;;;7.60;99.90;;;;;;6262148;22;20019;-80
2022/12/23 01:40:53;;;;;;;92.13;21.88;;;7.30;99.90;;;;;;6287348;22;20448;-78
2022/12/23 01:43:20;;;;;;;56.28;21.95;;;7.20;99.90;;;;;;6286786;22;20063;-79
2022/12/23 01:45:46;;;;;;;55.53;21.45;;;7.30;99.90;;;;;;6260916;22;20298;-80
2022/12/23 01:48:14;;;;;;;69.53;23.15;;;7.70;99.90;;;;;;6236440;22;20007;-79
2022/12/23 01:50:46;;;;;;;64.32;21.65;;;7.30;99.90;;;;;;6285528;22;20014;-79
2022/12/23 01:53:18;;;;;;;65.40;22.10;;;7.20;99.90;;;;;;6286297;22;20325;-79
2022/12/23 01:55:52;;;;;;;82.25;24.17;;;7.70;99.90;;;;;;6259891;22;20030;-79
2022/12/23 01:58:23;;;;;;;62.13;20.92;;;7.60;99.90;;;;;;6288492;22;20015;-79
2022/12/23 02:03:41;;;;;;;56.58;20.75;;;7.50;99.90;;;;;;6264664;22;20057;-79
2022/12/23 02:09:17;;;;;;;57.03;23.02;;;7.60;99.90;;;;;;6287632;22;20065;-79
2022/12/23 02:12:01;;;;;;;72.30;21.27;;;7.50;99.90;;;;;;6260011;22;20015;-78
2022/12/23 02:18:12;;;;;;;63.47;24.30;;;7.20;99.90;;;;;;6286578;22;20019;-79
2022/12/23 02:20:59;;;;;;;82.70;22.85;;;7.50;99.90;;;;;;6261261;22;20014;-80
2022/12/23 02:24:02;;;;;;;66.38;23.83;;;7.60;99.90;;;;;;6259463;22;20015;-80
2022/12/23 02:27:08;;;;;;;70.45;24.20;;;7.20;99.90;;;;;;6262540;22;20015;-80
2022/12/23 02:30:17;;;;;;;;;;;;;;;;;;;;;
2022/12/23 02:33:54;;;;;;;85.18;22.95;;;6.20;99.90;;;;;;6212646;23;20020;-79
2022/12/23 02:41:33;;;;;;;;;;;;;;;;;;;;;
2022/12/23 02:44:30;;;;;;;87.68;24.88;;;7.90;99.90;;;;;;6040796;23;20059;-79
2022/12/23 02:47:38;;;;;;;;;;;;;;;;;;;;;
2022/12/23 02:50:29;;;;;;;78.68;23.73;;;8.00;99.90;;;;;;6130589;23;20014;-77
2022/12/23 02:53:01;;;;;;;63.25;23.15;;;6.70;99.90;;;;;;6086701;23;20247;-77
2022/12/23 02:55:34;;;;;;;67.75;23.55;;;7.70;99.90;;;;;;6133993;23;20107;-78
2022/12/23 02:58:05;;;;;;;64.25;21.65;;;7.40;99.90;;;;;;6133385;23;20026;-77
2022/12/23 03:00:32;;;;;;;101.07;27.20;;;7.40;99.90;;;;;;6184456;23;20016;-78
2022/12/23 03:02:58;;;;;;;65.05;22.25;;;7.40;99.90;;;;;;6173835;23;20036;-78
2022/12/23 03:05:27;;;;;;;69.95;23.88;;;7.70;99.90;;;;;;6200637;23;20038;-78
2022/12/23 03:07:55;;;;;;;60.33;23.40;;;7.40;99.90;;;;;;6225392;23;20466;-78
2022/12/23 03:10:33;;;;;;;80.90;24.92;;;7.60;99.90;;;;;;6223501;23;20024;-78
2022/12/23 03:13:13;;;;;;;83.45;23.00;;;7.30;99.90;;;;;;6224237;23;20012;-78
2022/12/23 03:15:57;;;;;;;69.28;22.42;;;7.20;99.90;;;;;;6247410;22;20019;-79
2022/12/23 03:18:35;;;;;;;95.13;23.85;;;7.60;99.90;;;;;;6262485;22;20281;-79
2022/12/23 03:21:10;;;;;;;95.45;24.60;;;7.70;99.90;;;;;;6261432;22;20026;-79
2022/12/23 03:23:50;;;;;;;;;;;7.80;99.90;;;;;;6287699;22;20019;-79
2022/12/23 03:26:27;;;;;;;86.55;23.55;;;7.40;99.90;;;;;;6236176;22;19907;-79
2022/12/23 03:29:32;;;;;;;;;;;;;;;;;;;;;
2022/12/23 03:36:48;;;;;;;56.35;19.38;;;8.00;99.90;;;;;;6165486;23;20052;-79
2022/12/23 03:39:31;;;;;;;71.85;22.40;;;7.80;99.90;;;;;;6248761;22;20409;-77
2022/12/23 03:42:43;;;;;;;56.15;19.17;;;6.00;99.90;;;;;;6259787;22;20007;-78
2022/12/23 03:49:44;;;;;;;70.35;19.13;;;7.40;99.90;;;;;;6163695;23;20025;-80
2022/12/23 03:52:16;;;;;;;66.65;19.58;;;7.70;99.90;;;;;;6124388;22;20035;-80
2022/12/23 03:55:17;;;;;;;60.00;19.00;;;7.60;99.90;;;;;;6253458;22;20019;-78
2022/12/23 03:58:05;;;;;;;54.70;18.33;;;8.70;99.90;;;;;;6186758;23;20032;-78
2022/12/23 04:03:41;;;;;;;63.22;19.13;;;7.40;99.90;;;;;;6285306;22;20011;-78
2022/12/23 04:06:13;;;;;;;55.03;17.83;;;7.30;99.90;;;;;;6260724;22;20042;-78
2022/12/23 04:08:40;;;;;;;59.88;17.45;;;7.40;99.90;;;;;;6286042;22;20011;-78
2022/12/23 04:11:06;;;;;;;53.63;17.40;;;7.20;99.90;;;;;;6259121;22;20078;-78
2022/12/23 04:13:31;;;;;;;54.78;17.70;;;7.20;99.90;;;;;;6285959;22;20053;-79
2022/12/23 04:15:58;;;;;;;67.63;16.58;;;7.50;99.90;;;;;;6260154;22;20038;-78
2022/12/23 04:18:24;;;;;;;60.58;17.15;;;8.10;99.90;;;;;;6285877;22;20351;-78
2022/12/23 04:20:50;;;;;;;56.10;16.13;;;7.50;99.90;;;;;;6285159;22;20007;-78
2022/12/23 04:23:21;;;;;;;53.45;16.52;;;7.50;99.90;;;;;;6237318;22;20221;-77
2022/12/23 04:25:49;;;;;;;51.17;16.05;;;7.70;99.90;;;;;;6259035;22;20065;-78
2022/12/23 04:28:59;;;;;;;49.08;16.15;;;7.60;99.90;;;;;;6233706;22;20015;-78
2022/12/23 04:31:27;;;;;;;49.90;15.43;;;7.60;99.90;;;;;;6253107;22;20015;-78
2022/12/23 04:33:56;;;;;;;48.08;15.30;;;7.50;99.90;;;;;;6232662;22;20043;-78
2022/12/23 04:36:22;;;;;;;46.20;16.05;;;8.00;99.90;;;;;;6260413;22;20314;-78
2022/12/23 04:38:48;;;;;;;48.25;15.25;;;7.20;99.90;;;;;;6233968;22;20021;-78
2022/12/23 04:41:14;;;;;;;44.65;14.90;;;7.40;99.90;;;;;;6235675;22;20007;-78
2022/12/23 04:43:39;;;;;;;50.35;14.88;;;8.10;99.90;;;;;;6282527;22;20664;-78
2022/12/23 04:46:05;;;;;;;45.20;14.23;;;7.10;99.90;;;;;;6260099;22;20019;-78
2022/12/23 04:48:31;;;;;;;50.33;15.45;;;7.10;99.90;;;;;;6234731;22;20014;-78
2022/12/23 04:51:02;;;;;;;51.22;14.80;;;7.40;99.90;;;;;;6259713;22;20041;-81
2022/12/23 04:53:28;;;;;;;45.15;15.07;;;7.40;99.90;;;;;;6236935;22;20031;-79
2022/12/23 04:55:56;;;;;;;47.88;15.15;;;7.50;99.90;;;;;;6258853;22;20019;-79
2022/12/23 04:58:23;;;;;;;49.10;17.27;;;8.00;99.90;;;;;;6261448;22;20007;-79
2022/12/23 05:00:59;;;;;;;70.88;17.05;;;7.30;99.90;;;;;;6209912;22;20496;-78
2022/12/23 05:03:25;;;;;;;62.92;15.35;;;7.50;99.90;;;;;;6286424;22;20035;-79
2022/12/23 05:05:57;;;;;;;69.88;16.35;;;7.30;99.90;;;;;;6286887;22;20041;-79
2022/12/23 05:08:22;;;;;;;58.78;16.00;;;7.60;99.90;;;;;;6237138;22;20011;-78
2022/12/23 05:10:51;;;;;;;65.10;18.23;;;7.50;99.90;;;;;;6236661;22;20022;-78
2022/12/23 05:13:17;;;;;;;67.47;17.25;;;7.30;99.90;;;;;;6236066;22;20069;-78
2022/12/23 05:15:44;;;;;;;67.88;18.45;;;8.00;99.90;;;;;;6261982;22;20034;-77
2022/12/23 05:18:11;;;;;;;70.68;17.02;;;7.60;99.90;;;;;;6288011;22;20011;-78
2022/12/23 05:20:37;;;;;;;74.40;16.58;;;7.40;99.90;;;;;;6262272;22;20138;-79
2022/12/23 05:23:03;;;;;;;68.88;16.90;;;7.40;99.90;;;;;;6286987;22;20033;-77
2022/12/23 05:25:28;;;;;;;57.88;17.08;;;7.40;99.90;;;;;;6287787;22;20011;-77
2022/12/23 05:27:54;;;;;;;74.68;16.98;;;7.60;99.90;;;;;;6261558;22;20014;-76
2022/12/23 05:30:20;;;;;;;61.03;17.05;;;7.60;99.90;;;;;;6262180;22;20026;-77
2022/12/23 05:32:45;;;;;;;70.28;16.48;;;7.60;99.90;;;;;;6261845;22;20018;-79
2022/12/23 05:35:11;;;;;;;79.60;17.45;;;7.30;99.90;;;;;;6208706;22;20018;-80
2022/12/23 05:38:03;;;;;;;99.07;21.58;;;7.60;99.90;;;;;;6261626;22;20054;-79
2022/12/23 05:40:29;;;;;;;95.97;21.58;;;7.50;99.90;;;;;;6249253;22;20632;-80
2022/12/23 05:42:55;;;;;;;70.43;20.27;;;7.20;99.90;;;;;;6235123;22;20007;-80
2022/12/23 05:45:23;;;;;;;71.40;19.60;;;7.30;99.90;;;;;;6285564;22;20029;-79
2022/12/23 05:47:51;;;;;;;80.68;20.25;;;7.50;99.90;;;;;;6262212;22;20089;-80
2022/12/23 05:54:44;;;;;;;100.00;21.63;;;7.10;99.90;;;;;;6096640;23;20301;-78
2022/12/23 05:57:36;;;;;;;187.70;27.70;;;6.90;99.90;;;;;;6140160;23;20060;-77
2022/12/23 06:00:24;;;;;;;195.63;25.55;;;7.20;99.90;;;;;;6250013;22;20019;-77
2022/12/23 06:02:59;;;;;;;153.27;26.05;;;7.40;99.90;;;;;;6205429;22;20019;-78
2022/12/23 06:06:11;;;;;;;351.35;29.90;;;7.40;99.90;;;;;;6255400;22;20054;-78
2022/12/23 06:08:39;;;;;;;310.33;28.70;;;5.80;99.90;;;;;;6254686;22;20011;-78
2022/12/23 06:11:05;;;;;;;269.27;27.15;;;7.10;99.90;;;;;;6230954;22;20031;-77
2022/12/23 06:13:31;;;;;;;345.67;27.63;;;7.30;99.90;;;;;;6230689;22;20329;-78
2022/12/23 06:15:56;;;;;;;260.90;27.70;;;7.00;99.90;;;;;;6230815;22;20019;-78
2022/12/23 06:18:22;;;;;;;404.85;30.48;;;7.30;99.90;;;;;;6231478;22;20069;-77
2022/12/23 06:20:48;;;;;;;356.13;30.80;;;7.00;99.90;;;;;;6255741;22;20290;-77
2022/12/23 06:23:14;;;;;;;538.85;30.13;;;7.20;99.90;;;;;;6255900;22;20015;-77
2022/12/23 06:28:43;;;;;;;501.95;32.83;;;6.80;99.90;;;;;;6255648;22;20102;-77
2022/12/23 06:39:26;;;;;;;541.70;36.17;;;5.60;99.90;;;;;;6158717;23;20036;-78
2022/12/23 06:41:51;;;;;;;499.10;31.80;;;6.60;99.90;;;;;;6091875;23;20064;-78
2022/12/23 06:44:23;;;;;;;479.70;28.50;;;6.70;99.90;;;;;;6227321;22;20015;-78
2022/12/23 06:46:49;;;;;;;500.98;29.50;;;7.00;99.90;;;;;;6204204;22;20018;-79
2022/12/23 06:49:21;;;;;;;396.60;28.42;;;7.10;99.90;;;;;;6227723;22;20023;-80
2022/12/23 06:51:47;;;;;;;418.13;30.25;;;7.00;99.90;;;;;;6227736;22;20253;-79
2022/12/23 06:54:13;;;;;;;501.17;29.48;;;6.90;99.90;;;;;;6258027;22;20019;-79
2022/12/23 06:56:44;;;;;;;357.55;27.85;;;6.60;99.90;;;;;;6262141;22;20019;-79
2022/12/23 06:59:18;;;;;;;413.25;32.00;;;6.90;99.90;;;;;;6234884;22;20258;-79
2022/12/23 07:01:56;;;;;;;410.92;27.10;;;5.90;99.90;;;;;;6238063;22;20317;-80
2022/12/23 07:04:27;;;;;;;351.95;25.38;;;7.10;99.90;;;;;;6236265;22;20191;-79
2022/12/23 07:06:58;;;;;;;313.88;27.95;;;7.00;99.90;;;;;;6261047;22;20019;-80
2022/12/23 07:09:25;;;;;;;246.45;28.60;;;5.80;99.90;;;;;;6260299;22;20011;-79
2022/12/23 07:15:39;;;;;;;191.23;20.48;;;6.00;99.90;;;;;;6220604;22;20014;-78
2022/12/23 07:18:19;;;;;;;140.57;19.75;;;7.20;99.90;;;;;;6234013;22;20015;-77
2022/12/23 07:21:39;;;;;;;271.73;22.58;;;7.00;99.90;;;;;;6261966;22;20015;-77
2022/12/23 07:24:02;;;;;;;255.55;22.10;;;6.90;99.90;;;;;;6161316;22;20205;-82
2022/12/23 07:26:28;;;;;;;249.70;21.58;;;6.70;99.90;;;;;;6236552;22;20464;-77
2022/12/23 07:28:54;;;;;;;313.02;23.73;;;7.00;99.90;;;;;;6235715;22;20124;-80
2022/12/23 07:31:38;;;;;;;215.50;20.50;;;7.20;99.90;;;;;;6234697;22;20019;-80
2022/12/23 07:34:22;;;;;;;179.50;22.45;;;6.80;99.90;;;;;;6235816;22;20011;-79
2022/12/23 07:36:48;;;;;;;273.85;23.40;;;8.20;99.90;;;;;;6237438;22;20018;-77
2022/12/23 07:39:45;;;;;;;;;;;;;;;;;;;;;
2022/12/23 07:42:30;;;;;;;95.63;20.13;;;7.20;99.90;;;;;;6292661;22;20084;-78
2022/12/23 07:45:03;;;;;;;151.15;21.23;;;6.90;99.90;;;;;;6286458;22;20049;-78
2022/12/23 07:47:32;;;;;;;165.50;21.33;;;6.80;99.90;;;;;;6235673;22;20011;-79
2022/12/23 07:50:16;;;;;;;192.77;20.67;;;7.40;99.90;;;;;;6258846;22;20026;-79
2022/12/23 07:55:57;;;;;;;96.88;18.10;;;7.10;99.90;;;;;;6141230;23;20031;-78
2022/12/23 07:58:24;;;;;;;98.65;19.02;;;7.00;99.90;;;;;;6256691;22;20023;-77
2022/12/23 08:00:53;;;;;;;120.80;20.75;;;5.70;99.90;;;;;;6257874;22;20019;-78
2022/12/23 08:03:21;;;;;;;95.47;20.23;;;5.60;99.90;;;;;;6254903;22;20007;-78
2022/12/23 08:05:56;;;;;;;177.98;23.48;;;7.10;99.90;;;;;;6259331;22;20512;-78
2022/12/23 08:08:29;;;;;;;;;;;7.10;99.90;;;;;;6259379;22;20154;-77
2022/12/23 08:11:09;;;;;;;111.75;22.23;;;7.10;99.90;;;;;;6285737;22;19914;-77
2022/12/23 08:13:55;;;;;;;;;;;;;;;;;;;;;
2022/12/23 08:16:21;;;;;;;100.93;20.02;;;7.40;99.90;;;;;;6282860;22;20080;-76
2022/12/23 08:18:55;;;;;;;112.90;22.17;;;6.90;99.90;;;;;;6283724;22;20011;-76
2022/12/23 08:21:21;;;;;;;127.40;23.45;;;7.30;99.90;;;;;;6235391;22;20326;-74
2022/12/23 08:23:50;;;;;;;108.07;21.63;;;7.00;99.90;;;;;;6258148;22;20061;-77
2022/12/23 08:26:20;;;;;;;119.78;21.65;;;7.00;99.90;;;;;;6254808;22;20019;-77
2022/12/23 08:28:46;;;;;;;97.13;21.60;;;7.30;99.90;;;;;;6255761;22;20095;-77
2022/12/23 08:31:30;;;;;;;71.15;20.27;;;7.40;99.90;;;;;;6254047;22;20019;-76
2022/12/23 08:33:57;;;;;;;101.20;21.77;;;7.00;99.90;;;;;;6255565;22;20015;-77
2022/12/23 08:36:30;;;;;;;80.78;19.35;;;7.40;99.90;;;;;;6256800;22;20269;-77
2022/12/23 08:50:05;;;;;;;64.35;19.77;;;7.10;99.90;;;;;;6180827;23;20084;-78
2022/12/23 08:52:33;;;;;;;77.65;18.98;;;7.20;99.90;;;;;;6239171;22;20007;-78
2022/12/23 08:55:05;;;;;;;64.75;18.35;;;7.10;99.90;;;;;;6248658;22;20034;-78
2022/12/23 08:57:34;;;;;;;88.10;18.90;;;7.20;99.90;;;;;;6227574;22;20028;-78
2022/12/23 09:00:03;;;;;;;71.00;18.75;;;6.90;99.90;;;;;;6227709;22;20011;-78
2022/12/23 09:02:29;;;;;;;71.63;19.75;;;7.10;99.90;;;;;;6253701;22;20042;-78
2022/12/23 09:04:57;;;;;;;66.18;20.58;;;7.20;99.90;;;;;;6203616;22;20007;-78
2022/12/23 09:07:23;;;;;;;96.93;20.33;;;7.00;99.90;;;;;;6203723;22;20061;-78
2022/12/23 09:09:57;;;;;;;80.10;20.67;;;7.30;99.90;;;;;;6204782;22;20012;-78
2022/12/23 09:12:23;;;;;;;78.35;20.25;;;7.10;99.90;;;;;;6228384;22;20314;-78
2022/12/23 09:14:48;;;;;;;71.53;18.88;;;7.40;99.90;;;;;;6205359;22;20012;-79
2022/12/23 09:17:14;;;;;;;75.80;22.35;;;7.10;99.90;;;;;;6203701;22;20012;-76
2022/12/23 09:19:40;;;;;;;84.30;27.38;;;7.20;99.90;;;;;;6229116;22;20073;-77
2022/12/23 09:22:06;;;;;;;75.38;26.00;;;7.60;99.90;;;;;;6253433;22;20014;-77
2022/12/23 09:24:31;;;;;;;84.30;24.25;;;7.60;99.90;;;;;;6202920;22;20008;-76
2022/12/23 09:26:57;;;;;;;66.50;19.50;;;7.20;99.90;;;;;;6199956;22;20020;-75
2022/12/23 09:29:22;;;;;;;69.82;17.58;;;7.60;99.90;;;;;;6252232;22;20042;-75
2022/12/23 09:32:29;;;;;;;92.90;19.90;;;7.20;99.90;;;;;;6228160;22;20058;-76
2022/12/23 09:35:30;;;;;;;93.72;18.58;;;7.50;99.90;;;;;;6254161;22;20270;-78
2022/12/23 09:37:56;;;;;;;107.53;17.65;;;6.90;99.90;;;;;;6209864;22;20073;-75
2022/12/23 09:40:22;;;;;;;82.25;16.23;;;8.40;99.90;;;;;;6228032;22;20045;-76
2022/12/23 09:42:57;;;;;;;142.30;17.40;;;7.20;99.90;;;;;;6253362;22;20286;-76
2022/12/23 09:45:41;;;;;;;102.47;15.13;;;7.50;99.90;;;;;;6255723;22;20042;-77
2022/12/23 09:48:24;;;;;;;120.97;16.48;;;7.30;99.90;;;;;;6252483;22;20073;-76
2022/12/23 09:51:09;;;;;;;144.65;16.02;;;7.40;99.90;;;;;;6253716;22;20065;-76
2022/12/23 09:54:04;;;;;;;93.43;14.20;;;7.00;99.90;;;;;;6229759;22;20071;-76
2022/12/23 09:56:57;;;;;;;125.78;17.90;;;7.10;99.90;;;;;;6262556;22;20027;-75
2022/12/23 09:59:53;;;;;;;118.18;17.60;;;7.30;99.90;;;;;;6286159;22;20254;-76
2022/12/23 10:02:27;;;;;;;117.40;15.13;;;7.50;99.90;;;;;;6280314;22;20015;-76
2022/12/23 10:05:15;;;;;;;207.20;20.02;;;7.50;99.90;;;;;;6251595;22;20015;-77
2022/12/23 10:07:44;;;;;;;224.60;21.73;;;7.30;99.90;;;;;;6276093;22;20015;-76
2022/12/23 10:10:54;;;;;;;199.68;18.33;;;7.30;99.90;;;;;;6251768;22;20078;-75
2022/12/23 10:13:59;;;;;;;193.63;17.20;;;7.00;99.90;;;;;;6255147;22;20011;-75
2022/12/23 10:16:30;;;;;;;83.97;12.10;;;7.10;99.90;;;;;;6162876;22;20071;-78
2022/12/23 10:19:14;;;;;;;99.40;14.30;;;7.30;99.90;;;;;;6251397;22;20108;-77
2022/12/23 10:21:45;;;;;;;138.30;17.17;;;6.90;99.90;;;;;;6256096;22;20054;-77
2022/12/23 10:24:32;;;;;;;149.98;15.50;;;7.00;99.90;;;;;;6281983;22;20047;-76
2022/12/23 10:27:21;;;;;;;135.48;15.23;;;7.20;99.90;;;;;;6259573;22;20133;-76
2022/12/23 10:30:01;;;;;;;122.95;14.88;;;6.90;99.90;;;;;;6260262;22;20011;-76
2022/12/23 10:32:53;;;;;;;99.80;15.45;;;7.10;99.90;;;;;;6285120;22;20011;-76
2022/12/23 10:36:02;;;;;;;136.85;14.82;;;7.50;99.90;;;;;;6255632;22;20011;-74
2022/12/23 10:38:35;;;;;;;92.85;13.85;;;7.20;99.90;;;;;;6281943;22;20053;-77
2022/12/23 10:41:25;;;;;;;158.50;16.00;;;7.30;99.90;;;;;;6255610;22;20066;-76
2022/12/23 10:44:32;;;;;;;172.63;18.85;;;7.20;99.90;;;;;;6235758;22;20015;-76
2022/12/23 10:47:18;;;;;;;101.28;15.52;;;7.40;99.90;;;;;;6240830;22;20011;-74
2022/12/23 11:13:04;;;;;;;26.15;9.57;;;9.20;99.90;;;;;;5901329;24;20062;-78
2022/12/23 11:16:18;;;;;;;42.70;12.05;;;6.50;99.90;;;;;;5856434;24;20010;-78
2022/12/23 11:19:20;;;;;;;43.28;12.70;;;6.20;99.90;;;;;;5893360;24;20060;-78
2022/12/23 11:22:04;;;;;;;31.67;10.95;;;7.40;99.90;;;;;;6027412;23;20014;-77
2022/12/23 11:24:31;;;;;;;42.92;10.55;;;7.50;99.90;;;;;;6134253;23;20009;-77
2022/12/23 11:27:06;;;;;;;62.55;12.30;;;7.50;99.90;;;;;;6160648;23;20013;-77
2022/12/23 11:29:37;;;;;;;37.15;11.80;;;7.40;99.90;;;;;;6222420;22;20022;-78
2022/12/23 11:32:27;;;;;;;59.63;13.50;;;7.70;99.90;;;;;;6280242;22;20026;-79
2022/12/23 11:38:36;;;;;;;85.13;15.93;;;8.80;99.90;;;;;;6216295;22;20015;-77
2022/12/23 11:53:10;;;;;;;44.57;14.07;;;8.30;99.90;;;;;;6008072;23;20234;-77
2022/12/23 11:56:26;;;;;;;47.38;15.35;;;8.00;99.90;;;;;;6034565;23;20450;-77
2022/12/23 12:03:18;;;;;;;46.00;14.82;;;8.00;99.90;;;;;;6148668;23;20021;-77
2022/12/23 12:05:51;;;;;;;43.17;15.63;;;8.10;99.90;;;;;;6105834;23;20017;-78
2022/12/23 12:08:26;;;;;;;43.72;14.75;;;7.90;99.90;;;;;;6181112;22;20067;-79
2022/12/23 12:10:59;;;;;;;;;;;7.80;99.90;;;;;;6225454;22;20012;-77
2022/12/23 12:13:27;;;;;;;50.05;16.02;;;8.10;99.90;;;;;;6222876;22;20205;-78
2022/12/23 12:16:01;;;;;;;44.17;15.50;;;8.10;99.90;;;;;;6224718;22;20226;-78
2022/12/23 12:18:28;;;;;;;45.13;16.33;;;7.80;99.90;;;;;;6250096;22;20326;-79
2022/12/23 12:21:04;;;;;;;43.25;15.63;;;7.70;99.90;;;;;;6224143;22;20316;-77
2022/12/23 12:23:42;;;;;;;38.90;14.63;;;7.70;99.90;;;;;;6223035;22;20007;-78
2022/12/23 12:26:35;;;;;;;43.15;16.65;;;8.00;99.90;;;;;;6249512;22;20011;-77
2022/12/23 12:29:34;;;;;;;50.90;17.25;;;8.00;99.90;;;;;;6252683;22;20090;-80
2022/12/23 12:32:37;;;;;;;39.25;15.63;;;8.10;99.90;;;;;;6192049;23;20067;-78
2022/12/23 12:35:18;;;;;;;39.40;14.77;;;8.10;99.90;;;;;;6251337;22;20015;-76
2022/12/23 12:37:50;;;;;;;37.55;14.73;;;7.90;99.90;;;;;;6252899;22;20026;-76
2022/12/23 12:40:34;;;;;;;40.38;14.48;;;7.90;99.90;;;;;;6227328;22;20007;-76
2022/12/23 12:43:30;;;;;;;76.93;29.20;;;8.00;99.90;;;;;;6253195;22;20014;-76
2022/12/23 12:46:25;;;;;;;46.30;17.40;;;8.20;99.90;;;;;;6227182;22;20046;-77
2022/12/23 12:49:09;;;;;;;40.30;15.15;;;7.90;99.90;;;;;;6251545;22;20012;-78
2022/12/23 12:51:47;;;;;;;40.13;15.77;;;7.90;99.90;;;;;;6226503;22;20537;-76
2022/12/23 12:54:37;;;;;;;37.42;14.52;;;9.50;99.90;;;;;;6251488;22;20198;-78
2022/12/23 12:57:03;;;;;;;40.22;14.60;;;8.10;99.90;;;;;;6227349;22;20242;-79
2022/12/23 12:59:36;;;;;;;34.25;14.38;;;8.20;99.90;;;;;;6249633;22;20015;-78
2022/12/23 13:02:24;;;;;;;35.00;14.10;;;8.10;99.90;;;;;;6252114;22;20071;-77
2022/12/23 13:05:04;;;;;;;39.60;14.68;;;7.80;99.90;;;;;;6228435;22;20023;-77
2022/12/23 13:08:23;;;;;;;;;;;;;;;;;;;;;
2022/12/23 13:11:02;;;;;;;40.40;14.93;;;8.30;99.90;;;;;;6253988;22;20019;-78
2022/12/23 13:13:42;;;;;;;41.15;15.70;;;8.00;99.90;;;;;;6255097;22;20023;-78
2022/12/23 13:16:27;;;;;;;50.40;16.95;;;8.30;99.90;;;;;;6254749;22;20008;-78
2022/12/23 13:19:17;;;;;;;46.80;17.27;;;8.00;99.90;;;;;;6231441;22;20008;-79
2022/12/23 13:21:52;;;;;;;79.97;31.88;;;8.40;99.90;;;;;;6228074;22;20042;-77
2022/12/23 13:25:05;;;;;;;58.45;22.88;;;8.00;99.90;;;;;;6253995;22;20067;-78
2022/12/23 13:28:43;;;;;;;;;;;;;;;;;;;;;
2022/12/23 13:32:08;;;;;;;55.10;23.23;;;6.60;99.90;;;;;;6133068;23;20069;-77
2022/12/23 13:35:21;;;;;;;59.08;22.33;;;8.00;99.90;;;;;;6133020;23;20036;-77
2022/12/23 13:38:13;;;;;;;59.65;20.38;;;9.70;99.90;;;;;;6126827;23;20120;-77
2022/12/23 13:40:55;;;;;;;56.50;20.35;;;8.30;99.90;;;;;;6131879;23;20009;-79
2022/12/23 13:43:26;;;;;;;54.92;19.83;;;8.50;99.90;;;;;;6224411;22;20015;-77
2022/12/23 13:45:58;;;;;;;51.42;19.08;;;8.00;99.90;;;;;;6223190;22;20045;-77
2022/12/23 13:48:34;;;;;;;55.25;22.67;;;8.20;99.90;;;;;;6226071;22;20089;-78
2022/12/23 13:51:13;;;;;;;61.67;20.10;;;8.80;99.90;;;;;;6226209;22;20446;-80
2022/12/23 13:54:00;;;;;;;63.05;20.90;;;8.10;99.90;;;;;;6251503;22;20069;-76
2022/12/23 13:57:06;;;;;;;;;;;8.10;99.90;;;;;;6248185;22;20027;-77
2022/12/23 14:00:12;;;;;;;57.75;20.00;;;8.20;99.90;;;;;;6246438;22;19914;-77
2022/12/23 14:03:37;;;;;;;59.95;20.55;;;8.00;99.90;;;;;;6209010;22;20060;-79
2022/12/23 14:06:22;;;;;;;63.47;21.33;;;8.00;99.90;;;;;;6228615;22;20376;-78
2022/12/23 14:08:55;;;;;;;58.63;21.27;;;7.10;99.90;;;;;;6225327;22;20336;-77
2022/12/23 14:11:26;;;;;;;63.88;22.25;;;8.00;99.90;;;;;;6224404;22;20061;-80
2022/12/23 14:13:56;;;;;;;58.55;21.15;;;8.30;99.90;;;;;;6249392;22;20094;-78
2022/12/23 14:16:59;;;;;;;60.33;22.10;;;7.90;99.90;;;;;;6250585;22;20053;-78
2022/12/23 14:19:41;;;;;;;54.53;19.40;;;8.20;99.90;;;;;;6250916;22;20007;-78
2022/12/23 14:22:57;;;;;;;53.13;20.15;;;8.10;99.90;;;;;;6228411;22;20227;-78
2022/12/23 14:26:02;;;;;;;46.90;17.55;;;8.30;99.90;;;;;;6129403;23;20017;-78
2022/12/23 14:29:11;;;;;;;48.00;18.15;;;7.80;99.90;;;;;;6129720;23;20017;-78
2022/12/23 14:35:16;;;;;;;34.10;14.63;;;9.20;99.90;;;;;;6188222;22;20047;-78
2022/12/23 14:38:07;;;;;;;44.72;15.77;;;7.30;99.90;;;;;;6249157;22;20318;-77
2022/12/23 14:40:39;;;;;;;43.50;15.00;;;7.80;99.90;;;;;;6224688;22;20085;-78
2022/12/23 14:43:29;;;;;;;47.85;17.38;;;7.90;99.90;;;;;;6249456;22;20016;-77
2022/12/23 14:46:03;;;;;;;56.70;19.48;;;7.90;99.90;;;;;;6224530;22;20008;-77
2022/12/23 14:48:32;;;;;;;48.72;18.27;;;7.90;99.90;;;;;;6223834;22;20020;-78
2022/12/23 14:50:59;;;;;;;52.97;18.23;;;7.90;99.90;;;;;;6223586;22;20050;-78
2022/12/23 14:53:29;;;;;;;47.38;17.88;;;8.30;99.90;;;;;;6202556;22;20023;-78
2022/12/23 14:56:42;;;;;;;44.47;16.13;;;8.10;99.90;;;;;;6250044;22;20007;-79
2022/12/23 14:59:29;;;;;;;45.03;15.10;;;8.10;99.90;;;;;;6251585;22;20054;-78
2022/12/23 15:01:58;;;;;;;37.33;15.15;;;8.10;99.90;;;;;;6250150;22;20027;-77
2022/12/23 15:04:53;;;;;;;25.92;11.35;;;7.70;99.90;;;;;;6252407;22;20027;-78
2022/12/23 15:07:31;;;;;;;39.45;14.07;;;7.70;99.90;;;;;;6282938;22;20030;-78
2022/12/23 15:17:39;;;;;;;30.15;11.73;;;7.70;99.90;;;;;;6190190;23;20363;-79
2022/12/23 15:20:24;;;;;;;23.77;9.15;;;8.40;99.90;;;;;;6022858;23;20015;-78
2022/12/23 15:23:33;;;;;;;27.55;10.65;;;7.80;99.90;;;;;;6109880;23;20052;-79
2022/12/23 15:26:14;;;;;;;53.85;19.25;;;7.70;99.90;;;;;;6273764;22;20019;-79
2022/12/23 15:28:40;;;;;;;27.13;11.80;;;7.70;99.90;;;;;;6261431;22;20105;-79
2022/12/23 15:31:26;;;;;;;30.63;10.80;;;6.30;99.90;;;;;;6230774;22;20069;-78
2022/12/23 15:33:53;;;;;;;46.55;15.23;;;7.90;99.90;;;;;;6282815;22;20075;-78
2022/12/23 15:36:44;;;;;;;40.97;14.43;;;8.00;99.90;;;;;;6258370;22;20351;-78
2022/12/23 15:39:28;;;;;;;36.47;14.25;;;7.60;99.90;;;;;;6252552;22;20282;-78
2022/12/23 15:42:18;;;;;;;42.60;16.50;;;8.00;99.90;;;;;;6258431;22;20163;-79
2022/12/23 15:45:33;;;;;;;41.97;15.65;;;7.00;99.90;;;;;;6254807;22;20369;-79
2022/12/23 15:48:03;;;;;;;43.83;15.27;;;7.10;99.90;;;;;;6212697;22;20019;-79
2022/12/23 15:50:39;;;;;;;41.80;15.73;;;8.10;99.90;;;;;;6254003;22;20214;-79
2022/12/23 15:53:10;;;;;;;55.67;16.98;;;8.30;99.90;;;;;;6258081;22;20057;-79
2022/12/23 15:55:39;;;;;;;49.67;17.42;;;7.90;99.90;;;;;;6255946;22;20015;-78
2022/12/23 15:58:05;;;;;;;57.72;18.13;;;7.70;99.90;;;;;;6282835;22;20025;-78
2022/12/23 16:05:16;;;;;;;43.00;16.10;;;7.60;99.90;;;;;;6222206;22;20091;-78